sensor_id;sensor_type;location;lat;lon;timestamp;temperature;humidity
11615;DHT22;5863;52.832;4.758;2022-12-18T00:00:04;-0.70;99.90
11615;DHT22;5863;52.832;4.758;2022-12-18T00:02:31;-0.70;99.90
11615;DHT22;5863;52.832;4.758;2022-12-18T00:04:58;-0.70;99.90
11615;DHT22;5863;52.832;4.758;2022-12-18T00:07:24;-0.70;99.90
11615;DHT22;5863;52.832;4.758;2022-12-18T00:09:51;-0.70;99.90
11615;DHT22;5863;52.832;4.758;2022-12-18T00:12:19;-0.60;99.90
11615;DHT22;5863;52.832;4.758;2022-12-18T00:14:46;-0.60;99.90
11615;DHT22;5863;52.832;4.758;2022-12-18T00:17:13;-0.60;99.90
11615;DHT22;5863;52.832;4.758;2022-12-18T00:19:39;-0.60;99.90
11615;DHT22;5863;52.832;4.758;2022-12-18T00:22:06;-0.50;99.90
11615;DHT22;5863;52.832;4.758;2022-12-18T00:24:33;-0.60;99.90
11615;DHT22;5863;52.832;4.758;2022-12-18T00:26:59;-0.60;99.90
11615;DHT22;5863;52.832;4.758;2022-12-18T00:29:27;-0.60;99.90
11615;DHT22;5863;52.832;4.758;2022-12-18T00:31:59;-0.60;99.90
11615;DHT22;5863;52.832;4.758;2022-12-18T00:34:26;-0.60;99.90
11615;DHT22;5863;52.832;4.758;2022-12-18T00:36:52;-0.60;99.90
11615;DHT22;5863;52.832;4.758;2022-12-18T00:39:19;-0.60;99.90
11615;DHT22;5863;52.832;4.758;2022-12-18T00:41:46;-0.60;99.90
11615;DHT22;5863;52.832;4.758;2022-12-18T00:44:32;-0.60;99.90
11615;DHT22;5863;52.832;4.758;2022-12-18T00:46:58;-0.70;99.90
11615;DHT22;5863;52.832;4.758;2022-12-18T00:49:25;-0.70;99.90
11615;DHT22;5863;52.832;4.758;2022-12-18T00:51:52;-0.80;99.90
11615;DHT22;5863;52.832;4.758;2022-12-18T00:54:18;-0.90;99.90
11615;DHT22;5863;52.832;4.758;2022-12-18T00:56:45;-0.80;99.90
11615;DHT22;5863;52.832;4.758;2022-12-18T00:59:12;-0.80;99.90
11615;DHT22;5863;52.832;4.758;2022-12-18T01:01:40;-0.90;99.90
11615;DHT22;5863;52.832;4.758;2022-12-18T01:04:06;-0.90;99.90
11615;DHT22;5863;52.832;4.758;2022-12-18T01:06:33;-0.90;99.90
11615;DHT22;5863;52.832;4.758;2022-12-18T01:09:00;-0.90;99.90
11615;DHT22;5863;52.832;4.758;2022-12-18T01:11:26;-0.90;99.90
11615;DHT22;5863;52.832;4.758;2022-12-18T01:13:54;-0.80;99.90
11615;DHT22;5863;52.832;4.758;2022-12-18T01:16:21;-0.80;99.90
11615;DHT22;5863;52.832;4.758;2022-12-18T01:18:52;-0.90;99.90
11615;DHT22;5863;52.832;4.758;2022-12-18T01:21:20;-0.80;99.90
11615;DHT22;5863;52.832;4.758;2022-12-18T01:23:51;-0.90;99.90
11615;DHT22;5863;52.832;4.758;2022-12-18T01:26:18;-0.80;99.90
11615;DHT22;5863;52.832;4.758;2022-12-18T01:28:53;-0.80;99.90
11615;DHT22;5863;52.832;4.758;2022-12-18T01:31:22;-0.80;99.90
11615;DHT22;5863;52.832;4.758;2022-12-18T01:33:51;-0.80;99.90
11615;DHT22;5863;52.832;4.758;2022-12-18T01:36:19;-0.80;99.90
11615;DHT22;5863;52.832;4.758;2022-12-18T01:38:46;-0.70;99.90
11615;DHT22;5863;52.832;4.758;2022-12-18T01:41:14;-0.80;99.90
11615;DHT22;5863;52.832;4.758;2022-12-18T01:43:44;-0.70;99.90
11615;DHT22;5863;52.832;4.758;2022-12-18T01:46:11;-0.70;99.90
11615;DHT22;5863;52.832;4.758;2022-12-18T01:48:38;-0.70;99.90
11615;DHT22;5863;52.832;4.758;2022-12-18T01:51:08;-0.70;99.90
11615;DHT22;5863;52.832;4.758;2022-12-18T01:53:36;-0.60;99.90
11615;DHT22;5863;52.832;4.758;2022-12-18T01:56:03;-0.70;99.90
11615;DHT22;5863;52.832;4.758;2022-12-18T01:58:39;-0.70;99.90
11615;DHT22;5863;52.832;4.758;2022-12-18T02:01:07;-0.80;99.90
11615;DHT22;5863;52.832;4.758;2022-12-18T02:03:34;-0.80;99.90
11615;DHT22;5863;52.832;4.758;2022-12-18T02:06:08;-0.80;99.90
11615;DHT22;5863;52.832;4.758;2022-12-18T02:08:40;-0.80;99.90
11615;DHT22;5863;52.832;4.758;2022-12-18T02:11:17;-0.80;99.90
11615;DHT22;5863;52.832;4.758;2022-12-18T02:13:50;-0.80;99.90
11615;DHT22;5863;52.832;4.758;2022-12-18T02:16:23;-0.80;99.90
11615;DHT22;5863;52.832;4.758;2022-12-18T02:18:56;-0.80;99.90
11615;DHT22;5863;52.832;4.758;2022-12-18T02:21:31;-0.70;99.90
11615;DHT22;5863;52.832;4.758;2022-12-18T02:24:12;-0.70;99.90
11615;DHT22;5863;52.832;4.758;2022-12-18T02:26:45;-0.70;99.90
11615;DHT22;5863;52.832;4.758;2022-12-18T02:29:17;-0.80;99.90
11615;DHT22;5863;52.832;4.758;2022-12-18T02:31:46;-0.70;99.90
11615;DHT22;5863;52.832;4.758;2022-12-18T02:34:16;-0.80;99.90
11615;DHT22;5863;52.832;4.758;2022-12-18T02:36:45;-0.80;99.90
11615;DHT22;5863;52.832;4.758;2022-12-18T02:39:14;-0.80;99.90
11615;DHT22;5863;52.832;4.758;2022-12-18T02:41:43;-0.90;99.90
11615;DHT22;5863;52.832;4.758;2022-12-18T02:44:12;-0.90;99.90
11615;DHT22;5863;52.832;4.758;2022-12-18T02:46:41;-1.00;99.90
11615;DHT22;5863;52.832;4.758;2022-12-18T02:49:17;-1.00;99.90
11615;DHT22;5863;52.832;4.758;2022-12-18T02:51:51;-1.10;99.90
11615;DHT22;5863;52.832;4.758;2022-12-18T02:54:27;-1.20;99.90
11615;DHT22;5863;52.832;4.758;2022-12-18T02:57:05;-1.20;99.90
11615;DHT22;5863;52.832;4.758;2022-12-18T02:59:39;-1.20;99.90
11615;DHT22;5863;52.832;4.758;2022-12-18T03:02:17;-1.20;99.90
11615;DHT22;5863;52.832;4.758;2022-12-18T03:04:51;-1.30;99.90
11615;DHT22;5863;52.832;4.758;2022-12-18T03:07:26;-1.30;99.90
11615;DHT22;5863;52.832;4.758;2022-12-18T03:09:54;-1.30;99.90
11615;DHT22;5863;52.832;4.758;2022-12-18T03:12:28;-1.20;99.90
11615;DHT22;5863;52.832;4.758;2022-12-18T03:14:59;-1.30;99.90
11615;DHT22;5863;52.832;4.758;2022-12-18T03:17:27;-1.40;99.90
11615;DHT22;5863;52.832;4.758;2022-12-18T03:19:58;-1.30;99.90
11615;DHT22;5863;52.832;4.758;2022-12-18T03:22:27;-1.30;99.90
11615;DHT22;5863;52.832;4.758;2022-12-18T03:25:01;-1.30;99.90
11615;DHT22;5863;52.832;4.758;2022-12-18T03:27:32;-1.30;99.90
11615;DHT22;5863;52.832;4.758;2022-12-18T03:30:03;-1.40;99.90
11615;DHT22;5863;52.832;4.758;2022-12-18T03:32:38;-1.40;99.90
11615;DHT22;5863;52.832;4.758;2022-12-18T03:35:07;-1.40;99.90
11615;DHT22;5863;52.832;4.758;2022-12-18T03:37:34;-1.40;99.90
11615;DHT22;5863;52.832;4.758;2022-12-18T03:40:02;-1.50;99.90
11615;DHT22;5863;52.832;4.758;2022-12-18T03:42:34;-1.50;99.90
11615;DHT22;5863;52.832;4.758;2022-12-18T03:45:08;-1.50;99.90
11615;DHT22;5863;52.832;4.758;2022-12-18T03:47:42;-1.50;99.90
11615;DHT22;5863;52.832;4.758;2022-12-18T03:50:17;-1.60;99.90
11615;DHT22;5863;52.832;4.758;2022-12-18T03:52:49;-1.50;99.90
11615;DHT22;5863;52.832;4.758;2022-12-18T03:55:18;-1.50;99.90
11615;DHT22;5863;52.832;4.758;2022-12-18T03:57:48;-1.50;99.90
11615;DHT22;5863;52.832;4.758;2022-12-18T04:00:17;-1.50;99.90
11615;DHT22;5863;52.832;4.758;2022-12-18T04:02:47;-1.50;99.90
11615;DHT22;5863;52.832;4.758;2022-12-18T04:05:24;-1.60;99.90
11615;DHT22;5863;52.832;4.758;2022-12-18T04:07:53;-1.60;99.90
11615;DHT22;5863;52.832;4.758;2022-12-18T04:10:21;-1.70;99.90
11615;DHT22;5863;52.832;4.758;2022-12-18T04:12:49;-1.70;99.90
11615;DHT22;5863;52.832;4.758;2022-12-18T04:15:15;-1.60;99.90
11615;DHT22;5863;52.832;4.758;2022-12-18T04:17:47;-1.60;99.90
11615;DHT22;5863;52.832;4.758;2022-12-18T04:20:14;-1.60;99.90
11615;DHT22;5863;52.832;4.758;2022-12-18T04:22:41;-1.70;99.90
11615;DHT22;5863;52.832;4.758;2022-12-18T04:25:08;-1.70;99.90
11615;DHT22;5863;52.832;4.758;2022-12-18T04:27:35;-1.70;99.90
11615;DHT22;5863;52.832;4.758;2022-12-18T04:30:04;-1.70;99.90
11615;DHT22;5863;52.832;4.758;2022-12-18T04:32:33;-1.70;99.90
11615;DHT22;5863;52.832;4.758;2022-12-18T04:34:59;-1.70;99.90
11615;DHT22;5863;52.832;4.758;2022-12-18T04:37:26;-1.60;99.90
11615;DHT22;5863;52.832;4.758;2022-12-18T04:39:53;-1.70;99.90
11615;DHT22;5863;52.832;4.758;2022-12-18T04:42:20;-1.70;99.90
11615;DHT22;5863;52.832;4.758;2022-12-18T04:44:46;-1.70;99.90
11615;DHT22;5863;52.832;4.758;2022-12-18T04:47:14;-1.80;99.90
11615;DHT22;5863;52.832;4.758;2022-12-18T04:49:41;-1.80;99.90
11615;DHT22;5863;52.832;4.758;2022-12-18T04:52:08;-1.80;99.90
11615;DHT22;5863;52.832;4.758;2022-12-18T04:54:34;-1.80;99.90
11615;DHT22;5863;52.832;4.758;2022-12-18T04:57:01;-1.90;99.90
11615;DHT22;5863;52.832;4.758;2022-12-18T04:59:28;-1.90;99.90
11615;DHT22;5863;52.832;4.758;2022-12-18T05:01:55;-1.90;99.90
11615;DHT22;5863;52.832;4.758;2022-12-18T05:04:24;-1.90;99.90
11615;DHT22;5863;52.832;4.758;2022-12-18T05:06:50;-1.80;99.90
11615;DHT22;5863;52.832;4.758;2022-12-18T05:09:17;-1.80;99.90
11615;DHT22;5863;52.832;4.758;2022-12-18T05:11:44;-1.80;99.90
11615;DHT22;5863;52.832;4.758;2022-12-18T05:14:12;-1.80;99.90
11615;DHT22;5863;52.832;4.758;2022-12-18T05:16:38;-1.80;99.90
11615;DHT22;5863;52.832;4.758;2022-12-18T05:19:05;-1.80;99.90
11615;DHT22;5863;52.832;4.758;2022-12-18T05:21:33;-1.90;99.90
11615;DHT22;5863;52.832;4.758;2022-12-18T05:24:00;-1.80;99.90
11615;DHT22;5863;52.832;4.758;2022-12-18T05:26:27;-1.80;99.90
11615;DHT22;5863;52.832;4.758;2022-12-18T05:28:56;-1.80;99.90
11615;DHT22;5863;52.832;4.758;2022-12-18T05:31:23;-1.80;99.90
11615;DHT22;5863;52.832;4.758;2022-12-18T05:33:50;-1.90;99.90
11615;DHT22;5863;52.832;4.758;2022-12-18T05:36:16;-1.80;99.90
11615;DHT22;5863;52.832;4.758;2022-12-18T05:38:44;-1.90;99.90
11615;DHT22;5863;52.832;4.758;2022-12-18T05:41:11;-1.90;99.90
11615;DHT22;5863;52.832;4.758;2022-12-18T05:43:40;-1.90;99.90
11615;DHT22;5863;52.832;4.758;2022-12-18T05:46:10;-1.90;99.90
11615;DHT22;5863;52.832;4.758;2022-12-18T05:48:38;-1.90;99.90
11615;DHT22;5863;52.832;4.758;2022-12-18T05:51:06;-2.00;99.90
11615;DHT22;5863;52.832;4.758;2022-12-18T05:53:34;-2.00;99.90
11615;DHT22;5863;52.832;4.758;2022-12-18T05:56:04;-2.00;99.90
11615;DHT22;5863;52.832;4.758;2022-12-18T05:58:31;-2.00;99.90
11615;DHT22;5863;52.832;4.758;2022-12-18T06:01:06;-2.00;99.90
11615;DHT22;5863;52.832;4.758;2022-12-18T06:03:34;-2.10;99.90
11615;DHT22;5863;52.832;4.758;2022-12-18T06:06:01;-2.10;99.90
11615;DHT22;5863;52.832;4.758;2022-12-18T06:08:28;-2.10;99.90
11615;DHT22;5863;52.832;4.758;2022-12-18T06:10:54;-2.20;99.90
11615;DHT22;5863;52.832;4.758;2022-12-18T06:13:22;-2.20;99.90
11615;DHT22;5863;52.832;4.758;2022-12-18T06:15:49;-2.20;99.90
11615;DHT22;5863;52.832;4.758;2022-12-18T06:18:16;-2.20;99.90
11615;DHT22;5863;52.832;4.758;2022-12-18T06:20:42;-2.20;99.90
11615;DHT22;5863;52.832;4.758;2022-12-18T06:23:09;-2.20;99.90
11615;DHT22;5863;52.832;4.758;2022-12-18T06:25:38;-2.10;99.90
11615;DHT22;5863;52.832;4.758;2022-12-18T06:28:05;-2.20;99.90
11615;DHT22;5863;52.832;4.758;2022-12-18T06:30:33;-2.20;99.90
11615;DHT22;5863;52.832;4.758;2022-12-18T06:32:59;-2.10;99.90
11615;DHT22;5863;52.832;4.758;2022-12-18T06:35:26;-2.10;99.90
11615;DHT22;5863;52.832;4.758;2022-12-18T06:37:53;-2.20;99.90
11615;DHT22;5863;52.832;4.758;2022-12-18T06:40:20;-2.20;99.90
11615;DHT22;5863;52.832;4.758;2022-12-18T06:42:47;-2.20;99.90
11615;DHT22;5863;52.832;4.758;2022-12-18T06:45:14;-2.20;99.90
11615;DHT22;5863;52.832;4.758;2022-12-18T06:47:42;-2.30;99.90
11615;DHT22;5863;52.832;4.758;2022-12-18T06:50:09;-2.20;99.90
11615;DHT22;5863;52.832;4.758;2022-12-18T06:52:36;-2.20;99.90
11615;DHT22;5863;52.832;4.758;2022-12-18T06:55:05;-2.20;99.90
11615;DHT22;5863;52.832;4.758;2022-12-18T06:57:32;-2.10;99.90
11615;DHT22;5863;52.832;4.758;2022-12-18T06:59:59;-2.20;99.90
11615;DHT22;5863;52.832;4.758;2022-12-18T07:02:25;-2.20;99.90
11615;DHT22;5863;52.832;4.758;2022-12-18T07:04:53;-2.20;99.90
11615;DHT22;5863;52.832;4.758;2022-12-18T07:07:20;-2.20;99.90
11615;DHT22;5863;52.832;4.758;2022-12-18T07:09:47;-2.20;99.90
11615;DHT22;5863;52.832;4.758;2022-12-18T07:12:14;-2.20;99.90
11615;DHT22;5863;52.832;4.758;2022-12-18T07:14:41;-2.20;99.90
11615;DHT22;5863;52.832;4.758;2022-12-18T07:17:08;-2.10;99.90
11615;DHT22;5863;52.832;4.758;2022-12-18T07:19:35;-2.20;99.90
11615;DHT22;5863;52.832;4.758;2022-12-18T07:22:03;-2.20;99.90
11615;DHT22;5863;52.832;4.758;2022-12-18T07:24:29;-2.10;99.90
11615;DHT22;5863;52.832;4.758;2022-12-18T07:26:56;-2.10;99.90
11615;DHT22;5863;52.832;4.758;2022-12-18T07:29:23;-2.10;99.90
11615;DHT22;5863;52.832;4.758;2022-12-18T07:31:49;-2.10;99.90
11615;DHT22;5863;52.832;4.758;2022-12-18T07:34:17;-2.10;99.90
11615;DHT22;5863;52.832;4.758;2022-12-18T07:36:44;-2.10;99.90
11615;DHT22;5863;52.832;4.758;2022-12-18T07:39:12;-2.10;99.90
11615;DHT22;5863;52.832;4.758;2022-12-18T07:41:39;-2.10;99.90
11615;DHT22;5863;52.832;4.758;2022-12-18T07:44:09;-2.10;99.90
11615;DHT22;5863;52.832;4.758;2022-12-18T07:46:36;-2.10;99.90
11615;DHT22;5863;52.832;4.758;2022-12-18T07:49:02;-2.10;99.90
11615;DHT22;5863;52.832;4.758;2022-12-18T07:51:29;-2.00;99.90
11615;DHT22;5863;52.832;4.758;2022-12-18T07:53:56;-2.00;99.90
11615;DHT22;5863;52.832;4.758;2022-12-18T07:56:24;-2.10;99.90
11615;DHT22;5863;52.832;4.758;2022-12-18T07:58:51;-2.00;99.90
11615;DHT22;5863;52.832;4.758;2022-12-18T08:01:18;-2.00;99.90
11615;DHT22;5863;52.832;4.758;2022-12-18T08:03:45;-2.00;99.90
11615;DHT22;5863;52.832;4.758;2022-12-18T08:06:12;-2.10;99.90
11615;DHT22;5863;52.832;4.758;2022-12-18T08:08:39;-2.10;99.90
11615;DHT22;5863;52.832;4.758;2022-12-18T08:11:06;-2.10;99.90
11615;DHT22;5863;52.832;4.758;2022-12-18T08:13:34;-2.10;99.90
11615;DHT22;5863;52.832;4.758;2022-12-18T08:16:04;-2.00;99.90
11615;DHT22;5863;52.832;4.758;2022-12-18T08:18:34;-2.00;99.90
11615;DHT22;5863;52.832;4.758;2022-12-18T08:21:08;-1.90;99.90
11615;DHT22;5863;52.832;4.758;2022-12-18T08:23:35;-1.90;99.90
11615;DHT22;5863;52.832;4.758;2022-12-18T08:26:02;-1.90;99.90
11615;DHT22;5863;52.832;4.758;2022-12-18T08:28:29;-1.90;99.90
11615;DHT22;5863;52.832;4.758;2022-12-18T08:30:57;-1.80;99.90
11615;DHT22;5863;52.832;4.758;2022-12-18T08:33:25;-1.80;99.90
11615;DHT22;5863;52.832;4.758;2022-12-18T08:35:52;-1.80;99.90
11615;DHT22;5863;52.832;4.758;2022-12-18T08:38:19;-1.70;99.90
11615;DHT22;5863;52.832;4.758;2022-12-18T08:40:46;-1.70;99.90
11615;DHT22;5863;52.832;4.758;2022-12-18T08:43:12;-1.60;99.90
11615;DHT22;5863;52.832;4.758;2022-12-18T08:45:58;-1.60;99.90
11615;DHT22;5863;52.832;4.758;2022-12-18T08:48:24;-1.60;99.90
11615;DHT22;5863;52.832;4.758;2022-12-18T08:50:55;-1.60;99.90
11615;DHT22;5863;52.832;4.758;2022-12-18T08:53:21;-1.40;99.90
11615;DHT22;5863;52.832;4.758;2022-12-18T08:55:48;-1.40;99.90
11615;DHT22;5863;52.832;4.758;2022-12-18T08:58:15;-1.40;99.90
11615;DHT22;5863;52.832;4.758;2022-12-18T09:00:42;-1.40;99.90
11615;DHT22;5863;52.832;4.758;2022-12-18T09:03:12;-1.40;99.90
11615;DHT22;5863;52.832;4.758;2022-12-18T09:05:39;-1.40;99.90
11615;DHT22;5863;52.832;4.758;2022-12-18T09:08:06;-1.30;99.90
11615;DHT22;5863;52.832;4.758;2022-12-18T09:10:32;-1.30;99.90
11615;DHT22;5863;52.832;4.758;2022-12-18T09:12:59;-1.30;99.90
11615;DHT22;5863;52.832;4.758;2022-12-18T09:15:26;-1.20;99.90
11615;DHT22;5863;52.832;4.758;2022-12-18T09:17:52;-1.20;99.90
11615;DHT22;5863;52.832;4.758;2022-12-18T09:20:20;-1.00;99.90
11615;DHT22;5863;52.832;4.758;2022-12-18T09:22:47;-1.20;99.90
11615;DHT22;5863;52.832;4.758;2022-12-18T09:25:14;-1.10;99.90
11615;DHT22;5863;52.832;4.758;2022-12-18T09:27:41;-1.10;99.90
11615;DHT22;5863;52.832;4.758;2022-12-18T09:30:08;-1.10;99.90
11615;DHT22;5863;52.832;4.758;2022-12-18T09:32:35;-1.10;99.90
11615;DHT22;5863;52.832;4.758;2022-12-18T09:35:02;-0.90;99.90
11615;DHT22;5863;52.832;4.758;2022-12-18T09:37:30;-1.00;99.90
11615;DHT22;5863;52.832;4.758;2022-12-18T09:39:57;-0.90;99.90
11615;DHT22;5863;52.832;4.758;2022-12-18T09:42:23;-0.90;99.90
11615;DHT22;5863;52.832;4.758;2022-12-18T09:44:52;-0.90;99.90
11615;DHT22;5863;52.832;4.758;2022-12-18T09:47:23;-0.90;99.90
11615;DHT22;5863;52.832;4.758;2022-12-18T09:49:53;-0.90;99.90
11615;DHT22;5863;52.832;4.758;2022-12-18T09:52:23;-0.80;99.90
11615;DHT22;5863;52.832;4.758;2022-12-18T09:54:58;-0.80;99.90
11615;DHT22;5863;52.832;4.758;2022-12-18T09:57:26;-0.70;99.90
11615;DHT22;5863;52.832;4.758;2022-12-18T09:59:56;-0.70;99.90
11615;DHT22;5863;52.832;4.758;2022-12-18T10:02:24;-0.70;99.90
11615;DHT22;5863;52.832;4.758;2022-12-18T10:05:02;-0.60;99.90
11615;DHT22;5863;52.832;4.758;2022-12-18T10:07:38;-0.50;99.90
11615;DHT22;5863;52.832;4.758;2022-12-18T10:10:15;-0.50;99.90
11615;DHT22;5863;52.832;4.758;2022-12-18T10:12:52;-0.50;99.90
11615;DHT22;5863;52.832;4.758;2022-12-18T10:15:23;-0.50;99.90
11615;DHT22;5863;52.832;4.758;2022-12-18T10:17:54;-0.50;99.90
11615;DHT22;5863;52.832;4.758;2022-12-18T10:20:27;-0.40;99.90
11615;DHT22;5863;52.832;4.758;2022-12-18T10:23:01;-0.40;99.90
11615;DHT22;5863;52.832;4.758;2022-12-18T10:25:36;-0.40;99.90
11615;DHT22;5863;52.832;4.758;2022-12-18T10:28:10;-0.30;99.90
11615;DHT22;5863;52.832;4.758;2022-12-18T10:30:39;-0.30;99.90
11615;DHT22;5863;52.832;4.758;2022-12-18T10:33:10;-0.30;99.90
11615;DHT22;5863;52.832;4.758;2022-12-18T10:35:41;-0.20;99.90
11615;DHT22;5863;52.832;4.758;2022-12-18T10:38:21;-0.20;99.90
11615;DHT22;5863;52.832;4.758;2022-12-18T10:40:52;-0.10;99.90
11615;DHT22;5863;52.832;4.758;2022-12-18T10:43:21;-0.10;99.90
11615;DHT22;5863;52.832;4.758;2022-12-18T10:46:03;-0.10;99.90
11615;DHT22;5863;52.832;4.758;2022-12-18T10:48:33;-0.10;99.90
11615;DHT22;5863;52.832;4.758;2022-12-18T10:51:00;0.00;99.90
11615;DHT22;5863;52.832;4.758;2022-12-18T10:53:29;0.00;99.90
11615;DHT22;5863;52.832;4.758;2022-12-18T10:55:59;0.00;99.90
11615;DHT22;5863;52.832;4.758;2022-12-18T10:58:28;0.10;99.90
11615;DHT22;5863;52.832;4.758;2022-12-18T11:01:07;0.10;99.90
11615;DHT22;5863;52.832;4.758;2022-12-18T11:03:35;0.00;99.90
11615;DHT22;5863;52.832;4.758;2022-12-18T11:06:05;0.10;99.90
11615;DHT22;5863;52.832;4.758;2022-12-18T11:08:32;0.10;99.90
11615;DHT22;5863;52.832;4.758;2022-12-18T11:11:01;0.00;99.90
11615;DHT22;5863;52.832;4.758;2022-12-18T11:13:29;0.10;99.90
11615;DHT22;5863;52.832;4.758;2022-12-18T11:15:58;0.10;99.90
11615;DHT22;5863;52.832;4.758;2022-12-18T11:18:27;0.10;99.90
11615;DHT22;5863;52.832;4.758;2022-12-18T11:20:56;0.10;99.90
11615;DHT22;5863;52.832;4.758;2022-12-18T11:23:24;0.00;99.90
11615;DHT22;5863;52.832;4.758;2022-12-18T11:25:55;0.00;99.90
11615;DHT22;5863;52.832;4.758;2022-12-18T11:28:29;0.10;99.90
11615;DHT22;5863;52.832;4.758;2022-12-18T11:31:17;0.10;99.90
11615;DHT22;5863;52.832;4.758;2022-12-18T11:33:46;0.10;99.90
11615;DHT22;5863;52.832;4.758;2022-12-18T11:36:16;0.10;99.90
11615;DHT22;5863;52.832;4.758;2022-12-18T11:38:44;0.20;99.90
11615;DHT22;5863;52.832;4.758;2022-12-18T11:41:16;0.20;99.90
11615;DHT22;5863;52.832;4.758;2022-12-18T11:43:50;0.20;99.90
11615;DHT22;5863;52.832;4.758;2022-12-18T11:46:24;0.20;99.90
11615;DHT22;5863;52.832;4.758;2022-12-18T11:48:58;0.30;99.90
11615;DHT22;5863;52.832;4.758;2022-12-18T11:51:34;0.20;99.90
11615;DHT22;5863;52.832;4.758;2022-12-18T11:54:12;0.20;99.90
11615;DHT22;5863;52.832;4.758;2022-12-18T11:56:43;0.30;99.90
11615;DHT22;5863;52.832;4.758;2022-12-18T11:59:20;0.30;99.90
11615;DHT22;5863;52.832;4.758;2022-12-18T12:01:53;0.30;99.90
11615;DHT22;5863;52.832;4.758;2022-12-18T12:04:46;0.30;99.90
11615;DHT22;5863;52.832;4.758;2022-12-18T12:07:27;0.30;99.90
11615;DHT22;5863;52.832;4.758;2022-12-18T12:10:09;0.40;99.90
11615;DHT22;5863;52.832;4.758;2022-12-18T12:12:45;0.40;99.90
11615;DHT22;5863;52.832;4.758;2022-12-18T12:15:31;0.30;99.90
11615;DHT22;5863;52.832;4.758;2022-12-18T12:18:06;0.40;99.90
11615;DHT22;5863;52.832;4.758;2022-12-18T12:20:42;0.40;99.90
11615;DHT22;5863;52.832;4.758;2022-12-18T12:23:22;0.50;99.90
11615;DHT22;5863;52.832;4.758;2022-12-18T12:25:59;0.50;99.90
11615;DHT22;5863;52.832;4.758;2022-12-18T12:28:42;0.50;99.90
11615;DHT22;5863;52.832;4.758;2022-12-18T12:31:24;0.50;99.90
11615;DHT22;5863;52.832;4.758;2022-12-18T12:33:58;0.50;99.90
11615;DHT22;5863;52.832;4.758;2022-12-18T12:36:35;0.50;99.90
11615;DHT22;5863;52.832;4.758;2022-12-18T12:39:07;0.50;99.90
11615;DHT22;5863;52.832;4.758;2022-12-18T12:41:39;0.50;99.90
11615;DHT22;5863;52.832;4.758;2022-12-18T12:44:27;0.60;99.90
11615;DHT22;5863;52.832;4.758;2022-12-18T12:46:59;0.60;99.90
11615;DHT22;5863;52.832;4.758;2022-12-18T12:49:28;0.60;99.90
11615;DHT22;5863;52.832;4.758;2022-12-18T12:52:03;0.50;99.90
11615;DHT22;5863;52.832;4.758;2022-12-18T12:54:32;0.60;99.90
11615;DHT22;5863;52.832;4.758;2022-12-18T12:57:05;0.60;99.90
11615;DHT22;5863;52.832;4.758;2022-12-18T12:59:39;0.60;99.90
11615;DHT22;5863;52.832;4.758;2022-12-18T13:02:16;0.70;99.90
11615;DHT22;5863;52.832;4.758;2022-12-18T13:04:59;0.60;99.90
11615;DHT22;5863;52.832;4.758;2022-12-18T13:07:30;0.60;99.90
11615;DHT22;5863;52.832;4.758;2022-12-18T13:13:06;0.60;99.90
11615;DHT22;5863;52.832;4.758;2022-12-18T13:15:36;0.60;99.90
11615;DHT22;5863;52.832;4.758;2022-12-18T13:18:21;0.70;99.90
11615;DHT22;5863;52.832;4.758;2022-12-18T13:20:50;0.60;99.90
11615;DHT22;5863;52.832;4.758;2022-12-18T13:23:35;0.60;99.90
11615;DHT22;5863;52.832;4.758;2022-12-18T13:26:28;0.60;99.90
11615;DHT22;5863;52.832;4.758;2022-12-18T13:28:56;0.60;99.90
11615;DHT22;5863;52.832;4.758;2022-12-18T13:34:34;0.70;99.90
11615;DHT22;5863;52.832;4.758;2022-12-18T13:43:30;0.70;99.90
11615;DHT22;5863;52.832;4.758;2022-12-18T13:46:04;0.70;99.90
11615;DHT22;5863;52.832;4.758;2022-12-18T13:48:33;0.70;99.90
11615;DHT22;5863;52.832;4.758;2022-12-18T13:51:04;0.70;99.90
11615;DHT22;5863;52.832;4.758;2022-12-18T13:53:35;0.80;99.90
11615;DHT22;5863;52.832;4.758;2022-12-18T13:56:03;0.70;99.90
11615;DHT22;5863;52.832;4.758;2022-12-18T13:58:30;0.80;99.90
11615;DHT22;5863;52.832;4.758;2022-12-18T14:00:57;0.70;99.90
11615;DHT22;5863;52.832;4.758;2022-12-18T14:03:26;0.70;99.90
11615;DHT22;5863;52.832;4.758;2022-12-18T14:05:58;0.70;99.90
11615;DHT22;5863;52.832;4.758;2022-12-18T14:08:30;0.70;99.90
11615;DHT22;5863;52.832;4.758;2022-12-18T14:10:58;0.70;99.90
11615;DHT22;5863;52.832;4.758;2022-12-18T14:13:29;0.70;99.90
11615;DHT22;5863;52.832;4.758;2022-12-18T14:15:57;0.80;99.90
11615;DHT22;5863;52.832;4.758;2022-12-18T14:18:26;0.70;99.90
11615;DHT22;5863;52.832;4.758;2022-12-18T14:20:57;0.70;99.90
11615;DHT22;5863;52.832;4.758;2022-12-18T14:23:36;0.70;99.90
11615;DHT22;5863;52.832;4.758;2022-12-18T14:26:20;0.70;99.90
11615;DHT22;5863;52.832;4.758;2022-12-18T14:28:47;0.70;99.90
11615;DHT22;5863;52.832;4.758;2022-12-18T14:31:18;0.70;99.90
11615;DHT22;5863;52.832;4.758;2022-12-18T14:33:47;0.80;99.90
11615;DHT22;5863;52.832;4.758;2022-12-18T14:36:17;0.70;99.90
11615;DHT22;5863;52.832;4.758;2022-12-18T14:38:48;0.80;99.90
11615;DHT22;5863;52.832;4.758;2022-12-18T14:41:17;0.80;99.90
11615;DHT22;5863;52.832;4.758;2022-12-18T14:43:46;0.80;99.90
11615;DHT22;5863;52.832;4.758;2022-12-18T14:46:32;0.80;99.90
11615;DHT22;5863;52.832;4.758;2022-12-18T14:49:02;0.80;99.90
11615;DHT22;5863;52.832;4.758;2022-12-18T14:51:31;0.80;99.90
11615;DHT22;5863;52.832;4.758;2022-12-18T14:54:01;0.80;99.90
11615;DHT22;5863;52.832;4.758;2022-12-18T14:56:30;0.80;99.90
11615;DHT22;5863;52.832;4.758;2022-12-18T14:58:59;0.80;99.90
11615;DHT22;5863;52.832;4.758;2022-12-18T15:01:30;0.80;99.90
11615;DHT22;5863;52.832;4.758;2022-12-18T15:03:58;0.80;99.90
11615;DHT22;5863;52.832;4.758;2022-12-18T15:06:28;0.80;99.90
11615;DHT22;5863;52.832;4.758;2022-12-18T15:08:55;0.80;99.90
11615;DHT22;5863;52.832;4.758;2022-12-18T15:11:33;0.80;99.90
11615;DHT22;5863;52.832;4.758;2022-12-18T15:17:05;0.90;99.90
11615;DHT22;5863;52.832;4.758;2022-12-18T15:19:37;0.80;99.90
11615;DHT22;5863;52.832;4.758;2022-12-18T15:22:11;0.80;99.90
11615;DHT22;5863;52.832;4.758;2022-12-18T15:24:40;0.90;99.90
11615;DHT22;5863;52.832;4.758;2022-12-18T15:27:21;0.90;99.90
11615;DHT22;5863;52.832;4.758;2022-12-18T15:30:00;0.90;99.90
11615;DHT22;5863;52.832;4.758;2022-12-18T15:32:27;0.90;99.90
11615;DHT22;5863;52.832;4.758;2022-12-18T15:35:02;0.90;99.90
11615;DHT22;5863;52.832;4.758;2022-12-18T15:37:29;0.90;99.90
11615;DHT22;5863;52.832;4.758;2022-12-18T15:39:56;0.90;99.90
11615;DHT22;5863;52.832;4.758;2022-12-18T15:42:24;0.90;99.90
11615;DHT22;5863;52.832;4.758;2022-12-18T15:45:11;0.90;99.90
11615;DHT22;5863;52.832;4.758;2022-12-18T15:47:38;0.90;99.90
11615;DHT22;5863;52.832;4.758;2022-12-18T15:50:05;0.90;99.90
11615;DHT22;5863;52.832;4.758;2022-12-18T15:52:39;0.90;99.90
11615;DHT22;5863;52.832;4.758;2022-12-18T15:55:10;0.90;99.90
11615;DHT22;5863;52.832;4.758;2022-12-18T15:58:09;0.90;99.90
11615;DHT22;5863;52.832;4.758;2022-12-18T16:00:38;0.90;99.90
11615;DHT22;5863;52.832;4.758;2022-12-18T16:03:05;0.90;99.90
11615;DHT22;5863;52.832;4.758;2022-12-18T16:05:32;0.90;99.90
11615;DHT22;5863;52.832;4.758;2022-12-18T16:07:58;0.90;99.90
11615;DHT22;5863;52.832;4.758;2022-12-18T16:10:26;1.00;99.90
11615;DHT22;5863;52.832;4.758;2022-12-18T16:12:55;1.00;99.90
11615;DHT22;5863;52.832;4.758;2022-12-18T16:15:23;1.00;99.90
11615;DHT22;5863;52.832;4.758;2022-12-18T16:17:50;1.00;99.90
11615;DHT22;5863;52.832;4.758;2022-12-18T16:20:18;1.00;99.90
11615;DHT22;5863;52.832;4.758;2022-12-18T16:22:47;1.10;99.90
11615;DHT22;5863;52.832;4.758;2022-12-18T16:25:18;1.10;99.90